Terminal Aerodrome Forecast
Issued by NWS Blacksburg, VA

Home | Current Version | Previous Version | Text Only | Print | Product List | Glossary On
Versions: 1 2 3 4 5 6 7 8 9 10 11
000
FTUS41 KRNK 132321
TAFDAN
TAF
KDAN 132321Z 1400/1424 20008KT P6SM BKN060
     FM140400 23008KT P6SM SCT120
     FM141400 27008G16KT P6SM SCT250
     FM142100 31004KT P6SM FEW200=

USA.gov is the U.S. government's official web portal to all federal, state and local government web resources and services.